Time;durP1;ratioP1;P1;durP2;ratioP2;P2;SDS_P1;SDS_P2;PMS_P1;PMS_P2;Temp;Humidity;BMP_temperature;BMP_pressure;BME280_temperature;BME280_humidity;BME280_pressure;Samples;Min_cycle;Max_cycle;Signal;HPM_P1;HPM_P2
2021/09/30 00:02:24;;;;;;;1.40;0.90;;;8.90;1.00;;;;;;6350248;22;20159;-81
2021/09/30 00:04:49;;;;;;;0.97;0.80;;;8.90;1.00;;;;;;6346882;22;20232;-82
2021/09/30 00:07:15;;;;;;;2.30;1.17;;;8.90;1.00;;;;;;6340301;22;20238;-81
2021/09/30 00:09:44;;;;;;;2.50;1.63;;;8.90;1.00;;;;;;6344928;22;20186;-82
2021/09/30 00:12:15;;;;;;;2.20;1.30;;;8.90;1.00;;;;;;6345847;22;20252;-81
2021/09/30 00:14:49;;;;;;;1.20;1.10;;;;;;;;;;6349347;22;20152;-81
2021/09/30 00:36:00;;;;;;;1.13;1.03;;;8.80;1.00;;;;;;6366721;22;20141;-81
2021/09/30 00:41:57;;;;;;;2.13;1.23;;;8.80;1.00;;;;;;6348311;22;20530;-81
2021/09/30 00:52:01;;;;;;;1.40;1.23;;;8.80;1.00;;;;;;6347426;22;20580;-81
2021/09/30 01:58:38;;;;;;;1.30;1.20;;;8.30;1.00;;;;;;6347033;22;20147;-81
2021/09/30 02:29:20;;;;;;;1.57;1.27;;;8.00;1.00;;;;;;6312670;22;20144;-82
2021/09/30 02:35:02;;;;;;;2.70;1.23;;;8.00;1.00;;;;;;6348398;22;20148;-82
2021/09/30 02:59:28;;;;;;;2.13;1.30;;;7.90;1.00;;;;;;6347949;22;20167;-82
2021/09/30 03:01:57;;;;;;;3.70;1.63;;;7.90;1.00;;;;;;6346101;22;20173;-81
2021/09/30 03:04:24;;;;;;;2.13;1.23;;;7.80;1.00;;;;;;6347775;22;20164;-81
2021/09/30 03:06:51;;;;;;;4.03;2.00;;;7.80;1.00;;;;;;6346261;22;20459;-81
2021/09/30 03:09:20;;;;;;;1.40;1.30;;;7.80;1.00;;;;;;6348555;22;20223;-81
2021/09/30 03:11:53;;;;;;;2.07;1.30;;;7.70;1.00;;;;;;6351892;22;20190;-81
2021/09/30 03:14:21;;;;;;;1.40;1.30;;;7.70;1.00;;;;;;6348089;22;20148;-81
2021/09/30 03:16:52;;;;;;;1.73;1.40;;;7.70;1.00;;;;;;6347477;22;20156;-81
2021/09/30 03:22:26;;;;;;;3.10;1.17;;;7.70;1.00;;;;;;6283382;22;20201;-81
2021/09/30 03:24:52;;;;;;;2.17;1.57;;;7.60;1.00;;;;;;6329596;22;20160;-81
2021/09/30 03:27:18;;;;;;;2.37;1.60;;;7.60;1.00;;;;;;6348276;22;20152;-81
2021/09/30 03:29:45;;;;;;;2.90;1.53;;;8.40;1.00;;;;;;6348446;22;20160;-81
2021/09/30 03:32:11;;;;;;;1.83;1.67;;;7.80;1.00;;;;;;6347263;22;20195;-81
2021/09/30 03:34:37;;;;;;;2.43;1.60;;;7.70;1.00;;;;;;6353282;22;20199;-82
2021/09/30 03:37:04;;;;;;;2.87;1.70;;;7.90;1.00;;;;;;6319910;22;20171;-82
2021/09/30 03:39:30;;;;;;;2.93;1.73;;;7.60;1.00;;;;;;6349062;22;20160;-82
2021/09/30 03:41:55;;;;;;;3.97;1.93;;;7.60;1.00;;;;;;6349281;22;20164;-81
2021/09/30 03:44:22;;;;;;;3.17;2.47;;;7.50;1.00;;;;;;6347948;22;20167;-81
2021/09/30 03:46:51;;;;;;;6.70;2.90;;;7.40;1.00;;;;;;6350464;22;20160;-81
2021/09/30 03:49:32;;;;;;;2.53;1.90;;;7.40;1.00;;;;;;6345869;22;20248;-81
2021/09/30 03:54:32;;;;;;;2.17;1.83;;;;;;;;;;6349781;22;20206;-82
2021/09/30 03:57:04;;;;;;;5.43;2.27;;;7.30;1.00;;;;;;6351328;22;20164;-82
2021/09/30 03:59:30;;;;;;;3.10;1.50;;;9.00;1.00;;;;;;6346472;22;20161;-81
2021/09/30 04:01:57;;;;;;;2.27;2.00;;;7.60;1.00;;;;;;6346382;22;20168;-82
2021/09/30 04:04:26;;;;;;;1.80;1.70;;;7.20;1.00;;;;;;6346815;22;20248;-82
2021/09/30 04:06:56;;;;;;;3.80;2.20;;;7.30;1.00;;;;;;6346592;22;20160;-82
2021/09/30 04:09:26;;;;;;;3.40;1.80;;;;;;;;;;6346644;22;20526;-81
2021/09/30 04:11:53;;;;;;;2.30;2.10;;;7.20;1.00;;;;;;6349882;22;20172;-82
2021/09/30 04:14:19;;;;;;;2.00;1.70;;;;;;;;;;6346569;22;20540;-82
2021/09/30 04:16:47;;;;;;;4.60;2.00;;;7.10;1.00;;;;;;6346791;22;20191;-81
2021/09/30 04:19:15;;;;;;;5.03;2.40;;;7.10;1.00;;;;;;6345103;22;20164;-82
2021/09/30 04:21:42;;;;;;;4.20;2.10;;;;;;;;;;6347893;22;20298;-82
2021/09/30 04:24:07;;;;;;;3.13;2.20;;;7.00;1.00;;;;;;6348270;22;20156;-80
2021/09/30 04:26:33;;;;;;;2.93;2.07;;;7.00;1.00;;;;;;6348152;22;20244;-79
2021/09/30 04:28:58;;;;;;;3.50;1.70;;;7.10;1.00;;;;;;6348800;22;20158;-80
2021/09/30 04:31:24;;;;;;;3.90;2.83;;;9.00;1.00;;;;;;6346803;22;20181;-80
2021/09/30 04:33:53;;;;;;;2.30;2.10;;;7.00;1.00;;;;;;6351743;22;20163;-80
2021/09/30 04:36:21;;;;;;;3.73;2.57;;;7.00;1.00;;;;;;6350374;22;20168;-80
2021/09/30 04:38:48;;;;;;;3.40;2.40;;;6.90;1.00;;;;;;6349083;22;20167;-80
2021/09/30 04:41:14;;;;;;;4.57;2.73;;;7.00;1.00;;;;;;6347190;22;20159;-80
2021/09/30 04:43:40;;;;;;;4.33;2.50;;;;;;;;;;6285318;22;20219;-80
2021/09/30 04:46:05;;;;;;;2.17;1.87;;;7.10;1.00;;;;;;6285367;22;20163;-80
2021/09/30 04:48:31;;;;;;;3.33;2.33;;;7.10;1.00;;;;;;6283036;22;20204;-79
2021/09/30 04:50:57;;;;;;;2.50;2.30;;;9.10;1.00;;;;;;6280691;22;20207;-80
2021/09/30 04:53:22;;;;;;;3.80;2.70;;;7.00;1.00;;;;;;6280653;22;20249;-79
2021/09/30 04:55:48;;;;;;;2.67;2.13;;;6.90;1.00;;;;;;6254232;22;20158;-79
2021/09/30 04:58:14;;;;;;;2.23;2.00;;;8.10;1.00;;;;;;6285034;22;20265;-80
2021/09/30 05:00:40;;;;;;;10.47;2.80;;;7.80;1.00;;;;;;6279609;22;20176;-80
2021/09/30 05:03:05;;;;;;;3.37;2.27;;;6.90;1.00;;;;;;6253566;22;20236;-80
2021/09/30 05:05:31;;;;;;;3.73;2.47;;;6.90;1.00;;;;;;6281696;22;20158;-80
2021/09/30 05:07:56;;;;;;;3.97;2.60;;;6.90;1.00;;;;;;6283140;22;20168;-80
2021/09/30 05:10:30;;;;;;;3.20;2.83;;;6.90;1.00;;;;;;6255185;22;20408;-81
2021/09/30 05:12:57;;;;;;;4.23;3.23;;;6.90;1.00;;;;;;6255012;22;20200;-81
2021/09/30 05:15:23;;;;;;;5.90;2.70;;;;;;;;;;6333457;22;20156;-80
2021/09/30 05:17:49;;;;;;;2.50;2.30;;;6.90;1.00;;;;;;6343713;22;20365;-81
2021/09/30 05:20:14;;;;;;;3.90;2.97;;;7.20;1.00;;;;;;6345744;22;20153;-81
2021/09/30 05:22:40;;;;;;;4.47;2.67;;;7.00;1.00;;;;;;6345493;22;20204;-80
2021/09/30 05:25:06;;;;;;;3.17;2.47;;;7.00;1.00;;;;;;6346862;22;20156;-81
2021/09/30 05:27:31;;;;;;;6.63;2.93;;;7.00;1.00;;;;;;6346641;22;20167;-83
2021/09/30 05:29:57;;;;;;;4.37;2.60;;;;;;;;;;6347886;22;20199;-81
2021/09/30 05:32:23;;;;;;;3.93;2.77;;;7.00;1.00;;;;;;6346098;22;20189;-81
2021/09/30 05:34:48;;;;;;;3.27;2.80;;;7.00;1.00;;;;;;6343819;22;20170;-82
2021/09/30 05:37:14;;;;;;;6.37;3.00;;;;;;;;;;6347099;22;20177;-81
2021/09/30 05:39:40;;;;;;;3.90;3.50;;;7.00;1.00;;;;;;6345635;22;20186;-81
2021/09/30 05:42:06;;;;;;;8.27;3.40;;;7.00;1.00;;;;;;6346200;22;20178;-80
2021/09/30 05:44:33;;;;;;;4.60;3.10;;;7.00;1.00;;;;;;6346911;22;20164;-80
2021/09/30 05:46:59;;;;;;;5.20;3.03;;;;;;;;;;6340619;22;20168;-82
2021/09/30 05:49:25;;;;;;;4.53;2.93;;;7.00;1.00;;;;;;6344874;22;20168;-83
2021/09/30 05:51:50;;;;;;;3.57;3.03;;;7.00;1.00;;;;;;6344245;22;20187;-81
2021/09/30 05:54:16;;;;;;;5.17;3.00;;;7.00;1.00;;;;;;6347409;22;20157;-82
2021/09/30 05:56:42;;;;;;;4.90;2.90;;;8.00;1.00;;;;;;6346246;22;20177;-80
2021/09/30 05:59:09;;;;;;;8.87;3.80;;;7.00;1.00;;;;;;6345692;22;20171;-80
2021/09/30 06:05:57;;;;;;;5.83;3.70;;;7.10;1.00;;;;;;6343379;22;20545;-79
2021/09/30 06:14:43;;;;;;;4.57;3.13;;;7.30;1.00;;;;;;6354361;22;20144;-83
2021/09/30 06:17:09;;;;;;;5.40;3.00;;;;;;;;;;6343472;22;20237;-84
2021/09/30 06:19:35;;;;;;;5.10;3.33;;;7.50;1.00;;;;;;6340309;22;20155;-85
2021/09/30 06:22:05;;;;;;;5.83;3.30;;;;;;;;;;6342373;22;20206;-86
2021/09/30 06:24:31;;;;;;;4.17;3.87;;;7.60;1.00;;;;;;6343645;22;20148;-86
2021/09/30 06:26:56;;;;;;;4.70;3.83;;;7.70;1.00;;;;;;6342228;22;20619;-87
2021/09/30 06:29:22;;;;;;;7.40;3.87;;;;;;;;;;6341188;22;20177;-85
2021/09/30 06:31:48;;;;;;;8.00;3.50;;;8.10;1.00;;;;;;6343045;22;20193;-85
2021/09/30 06:34:14;;;;;;;4.03;2.93;;;8.20;1.00;;;;;;6321625;22;20164;-85
2021/09/30 06:36:40;;;;;;;3.60;3.03;;;9.30;1.00;;;;;;6346244;22;20162;-85
2021/09/30 06:39:05;;;;;;;2.97;2.67;;;11.00;1.00;;;;;;6341467;22;20158;-86
2021/09/30 06:41:31;;;;;;;3.40;2.50;;;10.90;1.00;;;;;;6341775;22;20167;-86
2021/09/30 06:43:57;;;;;;;3.10;2.80;;;8.60;1.00;;;;;;6342223;22;20155;-87
2021/09/30 06:46:24;;;;;;;3.40;3.10;;;;;;;;;;6342932;22;20163;-86
2021/09/30 06:48:49;;;;;;;3.87;2.90;;;8.90;1.00;;;;;;6345515;22;20167;-86
2021/09/30 06:51:15;;;;;;;3.90;2.93;;;;;;;;;;6343505;22;20235;-86
2021/09/30 06:53:41;;;;;;;4.40;2.70;;;9.20;1.00;;;;;;6344450;22;20156;-86
2021/09/30 06:56:13;;;;;;;2.93;2.60;;;9.20;1.00;;;;;;6345484;22;20675;-86
2021/09/30 06:58:45;;;;;;;4.53;3.17;;;;;;;;;;6345459;22;20148;-85
2021/09/30 07:01:13;;;;;;;4.40;2.83;;;9.40;1.00;;;;;;6346006;22;20156;-86
2021/09/30 07:03:39;;;;;;;3.60;3.30;;;9.40;1.00;;;;;;6346255;22;20170;-86
2021/09/30 07:06:05;;;;;;;5.57;3.13;;;9.40;1.00;;;;;;6344789;22;20174;-86
2021/09/30 07:08:32;;;;;;;5.17;2.97;;;9.60;1.00;;;;;;6347174;22;20156;-85
2021/09/30 07:10:58;;;;;;;6.47;3.10;;;9.70;1.00;;;;;;6345403;22;20188;-86
2021/09/30 07:13:25;;;;;;;4.23;3.50;;;9.80;1.00;;;;;;6343888;22;20156;-85
2021/09/30 07:15:51;;;;;;;4.33;3.10;;;9.90;1.00;;;;;;6346980;22;20205;-86
2021/09/30 07:18:18;;;;;;;5.43;2.57;;;10.00;1.00;;;;;;6345169;22;20155;-85
2021/09/30 07:20:53;;;;;;;3.30;3.00;;;10.00;1.00;;;;;;6345325;22;20584;-86
2021/09/30 07:23:19;;;;;;;5.90;2.93;;;10.10;1.00;;;;;;6345307;22;20191;-85
2021/09/30 07:25:44;;;;;;;2.97;2.73;;;10.20;1.00;;;;;;6343352;22;20646;-86
2021/09/30 07:28:10;;;;;;;3.73;2.60;;;10.20;1.00;;;;;;6341849;22;20154;-85
2021/09/30 07:30:36;;;;;;;3.93;2.80;;;10.40;1.00;;;;;;6343032;22;20168;-85
2021/09/30 07:33:02;;;;;;;3.90;2.50;;;10.40;1.00;;;;;;6346369;22;20228;-85
2021/09/30 07:35:28;;;;;;;2.90;2.57;;;10.70;1.00;;;;;;6346019;22;20162;-86
2021/09/30 07:37:54;;;;;;;4.27;3.00;;;;;;;;;;6347171;22;20160;-85
2021/09/30 07:40:23;;;;;;;3.07;1.97;;;11.00;1.00;;;;;;6346874;22;20163;-86
2021/09/30 07:42:50;;;;;;;4.20;2.80;;;11.10;1.00;;;;;;6348013;22;20148;-87
2021/09/30 07:45:15;;;;;;;4.50;2.53;;;11.60;1.00;;;;;;6346273;22;20210;-87
2021/09/30 07:47:41;;;;;;;3.83;2.40;;;11.10;1.00;;;;;;6343855;22;20166;-86
2021/09/30 07:50:08;;;;;;;3.07;2.33;;;10.90;1.00;;;;;;6343738;22;20170;-87
2021/09/30 07:52:34;;;;;;;3.83;2.43;;;10.90;1.00;;;;;;6344526;22;20184;-87
2021/09/30 07:55:00;;;;;;;4.30;2.10;;;;;;;;;;6343151;22;20247;-89
2021/09/30 07:57:29;;;;;;;4.13;2.40;;;10.70;1.00;;;;;;6346187;22;20187;-87
2021/09/30 07:59:56;;;;;;;2.93;2.57;;;10.70;1.00;;;;;;6347498;22;20154;-89
2021/09/30 08:02:22;;;;;;;6.77;2.40;;;11.20;1.00;;;;;;6346107;22;20557;-86
2021/09/30 08:04:48;;;;;;;4.37;2.20;;;;;;;;;;6345755;22;20159;-88
2021/09/30 08:07:13;;;;;;;7.67;3.30;;;10.40;1.00;;;;;;6344663;22;20171;-88
2021/09/30 08:09:39;;;;;;;3.60;1.90;;;10.40;1.00;;;;;;6342592;22;20615;-87
2021/09/30 08:12:06;;;;;;;3.80;2.53;;;10.60;1.00;;;;;;6343657;22;20180;-87
2021/09/30 08:14:32;;;;;;;2.40;1.93;;;10.40;1.00;;;;;;6317767;22;20156;-88
2021/09/30 08:16:58;;;;;;;2.77;2.13;;;;;;;;;;6346425;22;20485;-87
2021/09/30 08:19:23;;;;;;;3.93;2.23;;;10.50;1.00;;;;;;6343993;22;20160;-88
2021/09/30 08:21:50;;;;;;;3.50;2.27;;;10.80;1.00;;;;;;6342423;22;20202;-88
2021/09/30 08:24:17;;;;;;;5.43;2.13;;;10.90;1.00;;;;;;6345826;22;20555;-86
2021/09/30 08:26:45;;;;;;;4.10;2.10;;;12.20;1.00;;;;;;6343775;22;20160;-86
2021/09/30 08:29:12;;;;;;;4.00;2.13;;;11.30;1.00;;;;;;6346505;22;20160;-86
2021/09/30 08:31:38;;;;;;;3.53;1.90;;;;;;;;;;6347850;22;20204;-86
2021/09/30 08:34:04;;;;;;;3.20;2.30;;;;;;;;;;6343997;22;20176;-87
2021/09/30 08:36:31;;;;;;;3.70;2.17;;;11.50;1.00;;;;;;6345421;22;20163;-86
2021/09/30 08:38:57;;;;;;;3.93;2.27;;;11.70;1.00;;;;;;6342228;22;20144;-85
2021/09/30 08:41:23;;;;;;;4.50;1.90;;;12.30;1.00;;;;;;6342627;22;20193;-85
2021/09/30 08:43:49;;;;;;;5.57;2.20;;;;;;;;;;6342327;22;20198;-85
2021/09/30 08:46:15;;;;;;;5.87;2.50;;;12.00;1.00;;;;;;6341557;22;20174;-85
2021/09/30 08:48:41;;;;;;;5.13;1.90;;;12.20;1.00;;;;;;6342004;22;20170;-86
2021/09/30 08:51:12;;;;;;;2.17;1.90;;;12.20;1.00;;;;;;6342021;22;20244;-85
2021/09/30 08:53:38;;;;;;;3.33;2.10;;;;;;;;;;6347306;22;20144;-83
2021/09/30 08:56:06;;;;;;;5.83;2.40;;;12.50;1.00;;;;;;6346905;22;20177;-84
2021/09/30 08:58:33;;;;;;;3.67;2.07;;;12.60;1.00;;;;;;6345036;22;20588;-84
2021/09/30 09:00:59;;;;;;;3.33;2.10;;;12.70;1.00;;;;;;6341156;22;20157;-84
2021/09/30 09:03:42;;;;;;;2.87;1.70;;;12.80;1.00;;;;;;6341062;22;20193;-84
2021/09/30 09:06:09;;;;;;;2.30;1.73;;;12.80;1.00;;;;;;6344627;22;20156;-83
2021/09/30 09:08:36;;;;;;;6.47;2.50;;;12.70;1.00;;;;;;6344662;22;20155;-80
2021/09/30 09:11:05;;;;;;;3.37;2.13;;;12.70;1.00;;;;;;6345383;22;20183;-80
2021/09/30 09:13:31;;;;;;;4.80;2.03;;;12.70;1.00;;;;;;6344455;22;20163;-81
2021/09/30 09:16:03;;;;;;;4.30;2.30;;;12.70;1.00;;;;;;6342813;22;20238;-83
2021/09/30 09:18:41;;;;;;;5.83;2.43;;;12.70;1.00;;;;;;6345299;22;20160;-81
2021/09/30 09:21:19;;;;;;;5.57;2.30;;;12.70;1.00;;;;;;6344373;22;20213;-81
2021/09/30 09:23:51;;;;;;;4.30;2.70;;;12.70;1.00;;;;;;6344243;22;20155;-80
2021/09/30 09:26:29;;;;;;;3.30;2.30;;;12.70;1.00;;;;;;6348206;22;20164;-83
2021/09/30 09:29:16;;;;;;;3.83;2.13;;;12.70;1.00;;;;;;6326631;22;20214;-79
2021/09/30 09:31:44;;;;;;;2.47;2.17;;;12.90;1.00;;;;;;6349387;22;20180;-85
2021/09/30 09:34:30;;;;;;;3.90;2.10;;;13.00;1.00;;;;;;6349443;22;20201;-83
2021/09/30 09:37:29;;;;;;;3.40;1.80;;;13.20;1.00;;;;;;6349748;22;20243;-83
2021/09/30 09:39:56;;;;;;;3.67;1.70;;;13.50;1.00;;;;;;6347016;22;20145;-83
2021/09/30 09:42:28;;;;;;;3.80;2.43;;;14.90;1.00;;;;;;6349254;22;20216;-83
2021/09/30 09:44:56;;;;;;;2.37;1.70;;;13.90;1.00;;;;;;6348561;22;20160;-83
2021/09/30 09:47:26;;;;;;;3.87;2.07;;;14.10;1.00;;;;;;6349583;22;20168;-79
2021/09/30 09:50:24;;;;;;;7.10;2.03;;;14.10;1.00;;;;;;6323913;22;20597;-82
2021/09/30 09:52:56;;;;;;;4.47;2.30;;;13.80;1.00;;;;;;6354647;22;20176;-81
2021/09/30 09:55:37;;;;;;;4.20;2.10;;;13.80;1.00;;;;;;6352202;22;20201;-83
2021/09/30 09:58:03;;;;;;;4.87;2.70;;;13.80;1.00;;;;;;6352958;22;20200;-81
2021/09/30 10:00:48;;;;;;;8.00;2.70;;;13.90;1.00;;;;;;6351231;22;20160;-80
2021/09/30 10:03:15;;;;;;;2.67;1.80;;;13.90;1.00;;;;;;6348591;22;20144;-81
2021/09/30 10:05:41;;;;;;;8.53;2.37;;;13.90;1.00;;;;;;6349311;22;20188;-87
2021/09/30 10:08:07;;;;;;;3.87;2.00;;;13.90;1.00;;;;;;6350144;22;20161;-86
2021/09/30 10:10:36;;;;;;;5.93;2.37;;;14.00;1.00;;;;;;6352011;22;20152;-86
2021/09/30 10:13:03;;;;;;;2.60;2.20;;;14.00;1.00;;;;;;6351092;22;20187;-86
2021/09/30 10:15:29;;;;;;;2.77;1.87;;;;;;;;;;6350997;22;20164;-85
2021/09/30 10:17:55;;;;;;;4.77;1.87;;;;;;;;;;6352384;22;20167;-85
2021/09/30 10:20:22;;;;;;;3.80;2.73;;;14.30;1.00;;;;;;6351577;22;20244;-82
2021/09/30 10:22:55;;;;;;;3.17;2.23;;;14.40;1.00;;;;;;6349221;22;20201;-79
2021/09/30 10:25:23;;;;;;;2.30;2.10;;;14.70;1.00;;;;;;6345610;22;20205;-82
2021/09/30 10:27:59;;;;;;;4.47;2.73;;;14.40;1.00;;;;;;6347603;22;20238;-83
2021/09/30 10:30:34;;;;;;;4.40;2.33;;;14.50;1.00;;;;;;6350108;22;20154;-79
2021/09/30 10:33:02;;;;;;;3.30;2.20;;;14.20;1.00;;;;;;6345718;22;20180;-79
2021/09/30 10:35:36;;;;;;;5.53;2.17;;;15.40;1.00;;;;;;6343059;22;20177;-79
2021/09/30 10:38:20;;;;;;;5.17;2.23;;;14.40;1.00;;;;;;6345765;22;20143;-79
2021/09/30 10:41:01;;;;;;;3.63;2.27;;;14.50;1.00;;;;;;6349855;22;20165;-81
2021/09/30 10:43:29;;;;;;;3.73;2.63;;;14.70;1.00;;;;;;6351274;22;20185;-81
2021/09/30 10:45:55;;;;;;;4.17;2.20;;;14.50;1.00;;;;;;6352119;22;20150;-81
2021/09/30 10:48:24;;;;;;;3.70;2.70;;;14.60;1.00;;;;;;6346367;22;20191;-84
2021/09/30 10:51:05;;;;;;;3.23;2.53;;;14.60;1.00;;;;;;6345639;22;20173;-82
2021/09/30 10:53:46;;;;;;;2.97;2.60;;;14.70;1.00;;;;;;6352735;22;20232;-81
2021/09/30 10:56:24;;;;;;;2.40;1.87;;;14.80;1.00;;;;;;6351016;22;20161;-80
2021/09/30 10:58:50;;;;;;;3.03;1.63;;;14.90;1.00;;;;;;6348431;22;20162;-81
2021/09/30 11:01:16;;;;;;;4.13;2.23;;;15.30;1.00;;;;;;6349494;22;20163;-80
2021/09/30 11:04:03;;;;;;;4.23;2.20;;;15.20;1.00;;;;;;6349262;22;20605;-81
2021/09/30 11:06:29;;;;;;;5.20;2.10;;;15.30;1.00;;;;;;6347493;22;20162;-81
2021/09/30 11:09:17;;;;;;;3.93;2.30;;;15.40;1.00;;;;;;6350005;22;20245;-81
2021/09/30 11:11:52;;;;;;;6.47;2.30;;;15.70;1.00;;;;;;6347259;22;20673;-83
2021/09/30 11:14:20;;;;;;;2.83;2.00;;;15.80;1.00;;;;;;6348936;22;20149;-81
2021/09/30 11:16:53;;;;;;;3.87;2.03;;;16.10;1.00;;;;;;6346217;22;20159;-80
2021/09/30 11:19:23;;;;;;;4.47;1.93;;;15.80;1.00;;;;;;6349035;22;20140;-80
2021/09/30 11:21:49;;;;;;;4.70;1.70;;;15.70;1.00;;;;;;6348208;22;20211;-85
2021/09/30 11:24:24;;;;;;;3.17;2.00;;;15.80;1.00;;;;;;6345711;22;20163;-87
2021/09/30 11:26:51;;;;;;;2.30;1.57;;;16.30;1.00;;;;;;6344565;22;20174;-79
2021/09/30 11:29:22;;;;;;;2.10;1.30;;;16.70;1.00;;;;;;6347315;22;20269;-79
2021/09/30 11:32:09;;;;;;;2.17;1.60;;;16.90;1.00;;;;;;6343997;22;20488;-80
2021/09/30 11:34:39;;;;;;;3.37;1.40;;;17.10;1.00;;;;;;6349372;22;20148;-79
2021/09/30 11:37:28;;;;;;;1.23;1.10;;;17.20;1.00;;;;;;6351073;22;20212;-82
2021/09/30 11:39:57;;;;;;;2.33;1.47;;;17.10;1.00;;;;;;6348175;22;20150;-81
2021/09/30 11:42:32;;;;;;;3.27;1.20;;;17.20;1.00;;;;;;6346396;22;20165;-81
2021/09/30 11:45:03;;;;;;;2.87;1.47;;;17.90;1.00;;;;;;6345301;22;20144;-83
2021/09/30 11:47:30;;;;;;;3.00;1.33;;;18.60;1.00;;;;;;6344420;22;20676;-80
2021/09/30 11:49:58;;;;;;;2.07;1.30;;;19.60;1.00;;;;;;6346063;22;20173;-79
2021/09/30 11:52:24;;;;;;;1.57;1.20;;;;;;;;;;6347631;22;20197;-80
2021/09/30 11:54:50;;;;;;;1.93;1.10;;;;;;;;;;6350185;22;20165;-81
2021/09/30 11:57:27;;;;;;;2.33;1.63;;;19.40;1.00;;;;;;6344415;22;20164;-80
2021/09/30 12:00:10;;;;;;;3.03;1.20;;;19.60;1.00;;;;;;6340933;22;20169;-79
2021/09/30 12:02:36;;;;;;;2.80;1.60;;;19.70;1.00;;;;;;6344282;22;20150;-79
2021/09/30 12:05:03;;;;;;;2.57;1.17;;;20.30;1.00;;;;;;6341467;22;20203;-78
2021/09/30 12:07:28;;;;;;;2.55;1.45;;;20.50;1.00;;;;;;6343342;22;20200;-79
2021/09/30 12:09:58;;;;;;;2.65;1.27;;;21.40;1.00;;;;;;6345015;22;20166;-79
2021/09/30 12:12:35;;;;;;;3.28;1.30;;;23.40;1.00;;;;;;6342612;22;20175;-78
2021/09/30 12:15:03;;;;;;;2.63;1.13;;;23.40;1.00;;;;;;6341962;22;20147;-78
2021/09/30 12:17:31;;;;;;;3.72;1.30;;;23.60;1.00;;;;;;6342493;22;20148;-79
2021/09/30 12:19:57;;;;;;;3.42;1.27;;;23.40;1.00;;;;;;6345771;22;20155;-79
2021/09/30 12:22:38;;;;;;;3.50;1.25;;;24.10;1.00;;;;;;6343565;22;20580;-79
2021/09/30 12:25:13;;;;;;;3.08;1.65;;;24.20;1.00;;;;;;6343666;22;20548;-79
2021/09/30 12:27:41;;;;;;;2.78;1.13;;;25.10;1.00;;;;;;6344913;22;20151;-79
2021/09/30 12:30:11;;;;;;;3.90;1.33;;;25.40;1.00;;;;;;6343497;22;20160;-79
2021/09/30 12:32:41;;;;;;;2.38;1.17;;;24.90;1.00;;;;;;6345212;22;20609;-79
2021/09/30 12:35:09;;;;;;;2.92;1.40;;;24.90;1.00;;;;;;6317094;22;20231;-79
2021/09/30 12:37:43;;;;;;;3.95;1.50;;;24.70;1.00;;;;;;6347276;22;20223;-80
2021/09/30 12:40:13;;;;;;;2.95;1.25;;;23.30;1.00;;;;;;6340923;22;20152;-78
2021/09/30 12:42:40;;;;;;;4.70;1.42;;;22.10;1.00;;;;;;6339890;22;20243;-79
2021/09/30 12:45:14;;;;;;;2.22;1.48;;;20.70;1.00;;;;;;6339814;22;20168;-78
2021/09/30 12:47:42;;;;;;;3.83;1.37;;;20.70;1.00;;;;;;6344886;22;20168;-79
2021/09/30 12:50:15;;;;;;;2.53;1.53;;;21.10;1.00;;;;;;6342952;22;20191;-80
2021/09/30 12:52:42;;;;;;;1.52;1.13;;;21.20;1.00;;;;;;6346088;22;20285;-79
2021/09/30 12:55:26;;;;;;;2.22;1.42;;;22.10;1.00;;;;;;6346615;22;20214;-79
2021/09/30 12:57:52;;;;;;;2.28;1.27;;;23.60;1.00;;;;;;6345962;22;20212;-79
2021/09/30 13:00:19;;;;;;;2.72;1.10;;;24.90;1.00;;;;;;6344067;22;20156;-81
2021/09/30 13:02:48;;;;;;;1.00;0.90;;;26.30;1.00;;;;;;6346328;22;20217;-81
2021/09/30 13:05:15;;;;;;;1.13;0.73;;;26.70;1.00;;;;;;6347328;22;20595;-81
2021/09/30 13:08:01;;;;;;;2.17;1.08;;;26.20;1.00;;;;;;6347337;22;20216;-80
2021/09/30 13:10:30;;;;;;;2.38;1.13;;;25.40;1.00;;;;;;6342570;22;20586;-79
2021/09/30 13:13:06;;;;;;;1.35;0.88;;;24.00;1.00;;;;;;6340572;22;20214;-80
2021/09/30 13:15:50;;;;;;;1.30;0.80;;;23.50;1.00;;;;;;6343674;22;20167;-79
2021/09/30 13:18:16;;;;;;;4.28;1.02;;;23.80;1.00;;;;;;6345091;22;20230;-79
2021/09/30 13:21:02;;;;;;;2.08;1.10;;;23.20;1.00;;;;;;6342759;22;20171;-78
2021/09/30 13:23:29;;;;;;;1.77;1.20;;;22.10;1.00;;;;;;6341563;22;20178;-79
2021/09/30 13:25:55;;;;;;;2.83;1.20;;;21.10;1.00;;;;;;6342289;22;20153;-78
2021/09/30 13:28:20;;;;;;;3.17;1.20;;;21.10;1.00;;;;;;6343282;22;20157;-79
2021/09/30 13:30:46;;;;;;;2.25;1.02;;;21.30;1.00;;;;;;6340117;22;20230;-79
2021/09/30 13:33:13;;;;;;;1.63;1.10;;;21.40;1.00;;;;;;6341283;22;20653;-77
2021/09/30 13:35:39;;;;;;;3.30;1.43;;;21.00;1.00;;;;;;6313525;22;20184;-78
2021/09/30 13:38:05;;;;;;;2.83;1.40;;;20.30;1.00;;;;;;6338968;22;20585;-77
2021/09/30 13:40:31;;;;;;;1.80;1.20;;;;;;;;;;6343059;22;20260;-78
2021/09/30 13:42:58;;;;;;;1.37;1.10;;;19.70;1.00;;;;;;6339258;22;20515;-77
2021/09/30 13:45:24;;;;;;;1.50;1.10;;;19.10;1.00;;;;;;6335731;22;20171;-77
2021/09/30 13:47:52;;;;;;;3.30;1.17;;;19.00;1.00;;;;;;6335981;22;20171;-78
2021/09/30 13:50:23;;;;;;;2.77;1.37;;;19.00;1.00;;;;;;6338264;22;20186;-79
2021/09/30 13:52:51;;;;;;;1.63;1.20;;;18.90;1.00;;;;;;6346984;22;20175;-82
2021/09/30 13:55:18;;;;;;;1.97;1.30;;;18.90;1.00;;;;;;6345754;22;20162;-79
2021/09/30 13:57:45;;;;;;;1.93;1.30;;;18.90;1.00;;;;;;6344611;22;20224;-81
2021/09/30 14:00:13;;;;;;;1.37;1.27;;;18.70;1.00;;;;;;6344691;22;20156;-77
2021/09/30 14:02:41;;;;;;;1.83;1.17;;;18.70;1.00;;;;;;6338482;22;20172;-78
2021/09/30 14:05:09;;;;;;;3.20;1.47;;;18.70;1.00;;;;;;6343830;22;20234;-78
2021/09/30 14:07:35;;;;;;;2.00;1.40;;;18.50;1.00;;;;;;6339448;22;20209;-78
2021/09/30 14:10:04;;;;;;;1.33;1.10;;;18.30;1.00;;;;;;6339682;22;20162;-78
2021/09/30 14:12:31;;;;;;;1.27;0.90;;;18.10;1.00;;;;;;6336195;22;20637;-78
2021/09/30 14:14:57;;;;;;;1.60;1.33;;;17.90;1.00;;;;;;6339350;22;20649;-79
2021/09/30 14:17:23;;;;;;;1.83;0.97;;;17.80;1.00;;;;;;6338832;22;20185;-78
2021/09/30 14:19:49;;;;;;;2.10;1.40;;;17.50;1.00;;;;;;6337351;22;20159;-79
2021/09/30 14:22:14;;;;;;;2.60;1.20;;;17.30;1.00;;;;;;6345903;22;20236;-80
2021/09/30 14:24:40;;;;;;;1.53;1.20;;;17.30;1.00;;;;;;6342779;22;20163;-79
2021/09/30 14:27:06;;;;;;;1.70;1.40;;;17.10;1.00;;;;;;6346832;22;20166;-80
2021/09/30 14:29:31;;;;;;;2.50;1.20;;;17.00;1.00;;;;;;6343585;22;20163;-82
2021/09/30 14:31:57;;;;;;;2.07;1.33;;;17.00;1.00;;;;;;6343782;22;20941;-80
2021/09/30 14:34:23;;;;;;;1.17;1.10;;;17.00;1.00;;;;;;6345894;22;20243;-81
2021/09/30 14:36:49;;;;;;;1.53;1.10;;;16.80;1.00;;;;;;6345786;22;20614;-81
2021/09/30 14:39:14;;;;;;;4.00;1.37;;;16.80;1.00;;;;;;6345154;22;20160;-81
2021/09/30 14:41:40;;;;;;;1.40;1.03;;;16.80;1.00;;;;;;6344826;22;20260;-80
2021/09/30 14:44:07;;;;;;;3.07;1.13;;;16.80;1.00;;;;;;6344399;22;20160;-81
2021/09/30 14:46:33;;;;;;;3.67;1.40;;;;;;;;;;6344932;22;20154;-81
2021/09/30 14:48:58;;;;;;;2.20;1.23;;;16.60;1.00;;;;;;6344281;22;20162;-81
2021/09/30 14:51:24;;;;;;;4.13;1.43;;;16.60;1.00;;;;;;6342818;22;20195;-83
2021/09/30 14:53:50;;;;;;;2.00;1.80;;;16.50;1.00;;;;;;6341959;22;20191;-82
2021/09/30 14:56:15;;;;;;;4.50;1.87;;;16.40;1.00;;;;;;6339310;22;20187;-83
2021/09/30 14:58:41;;;;;;;1.80;1.63;;;16.40;1.00;;;;;;6349350;22;20152;-82
2021/09/30 15:01:08;;;;;;;4.97;1.70;;;16.20;1.00;;;;;;6348312;22;20157;-82
2021/09/30 15:03:34;;;;;;;2.73;1.43;;;16.40;1.00;;;;;;6347552;22;20186;-83
2021/09/30 15:05:59;;;;;;;2.00;1.60;;;16.20;1.00;;;;;;6346468;22;20167;-85
2021/09/30 15:08:25;;;;;;;2.53;1.63;;;16.20;1.00;;;;;;6344664;22;20221;-81
2021/09/30 15:10:51;;;;;;;1.73;1.17;;;16.20;1.00;;;;;;6349574;22;20269;-81
2021/09/30 15:13:17;;;;;;;1.10;1.00;;;16.10;1.00;;;;;;6350635;22;20643;-81
2021/09/30 15:15:43;;;;;;;1.37;1.00;;;16.10;1.00;;;;;;6351631;22;20624;-81
2021/09/30 15:18:11;;;;;;;1.57;1.30;;;16.10;1.00;;;;;;6352815;22;20210;-84
2021/09/30 15:23:14;;;;;;;2.77;1.50;;;16.10;1.00;;;;;;6351904;22;20305;-81
2021/09/30 15:25:45;;;;;;;5.17;1.67;;;16.00;1.00;;;;;;6350556;22;20156;-82
2021/09/30 15:28:14;;;;;;;2.73;1.60;;;16.10;1.00;;;;;;6323258;22;20251;-80
2021/09/30 15:30:41;;;;;;;2.53;1.33;;;15.80;1.00;;;;;;6346080;22;20164;-82
2021/09/30 15:33:10;;;;;;;1.53;1.20;;;15.70;1.00;;;;;;6350594;22;20180;-81
2021/09/30 15:35:36;;;;;;;3.33;1.30;;;15.70;1.00;;;;;;6351434;22;20250;-82
2021/09/30 15:38:03;;;;;;;1.50;1.20;;;15.60;1.00;;;;;;6346100;22;20162;-80
2021/09/30 15:40:29;;;;;;;2.73;1.37;;;15.50;1.00;;;;;;6346933;22;20245;-81
2021/09/30 15:42:55;;;;;;;1.63;1.30;;;15.50;1.00;;;;;;6351632;22;20159;-82
2021/09/30 15:45:21;;;;;;;2.40;1.57;;;15.50;1.00;;;;;;6349739;22;20159;-82
2021/09/30 15:47:47;;;;;;;2.10;1.67;;;;;;;;;;6347632;22;20171;-79
2021/09/30 15:50:13;;;;;;;3.03;1.80;;;15.60;1.00;;;;;;6342200;22;20168;-80
2021/09/30 15:52:39;;;;;;;1.93;1.50;;;15.60;1.00;;;;;;6343887;22;20275;-80
2021/09/30 15:55:05;;;;;;;3.00;1.40;;;15.50;1.00;;;;;;6342388;22;20174;-79
2021/09/30 15:57:34;;;;;;;4.57;1.60;;;15.50;1.00;;;;;;6311363;22;20496;-79
2021/09/30 16:00:01;;;;;;;3.23;1.60;;;15.50;1.00;;;;;;6333945;22;20569;-77
2021/09/30 16:02:26;;;;;;;3.57;1.70;;;15.40;1.00;;;;;;6337842;22;20157;-78
2021/09/30 16:04:52;;;;;;;5.50;1.40;;;15.30;1.00;;;;;;6336885;22;20592;-78